sensor_id;sensor_type;location;lat;lon;timestamp;P1;P2;P0
78063;PMS5003;67429;51.596;-3.264;2024-02-28T00:02:08;30;27;
78063;PMS5003;67429;51.596;-3.264;2024-02-28T00:04:34;31;29;
78063;PMS5003;67429;51.596;-3.264;2024-02-28T00:07:00;27;26;
78063;PMS5003;67429;51.596;-3.264;2024-02-28T00:09:25;32;27;
78063;PMS5003;67429;51.596;-3.264;2024-02-28T00:11:50;47;46;
78063;PMS5003;67429;51.596;-3.264;2024-02-28T00:14:16;21;20;
78063;PMS5003;67429;51.596;-3.264;2024-02-28T00:16:41;41;39;
78063;PMS5003;67429;51.596;-3.264;2024-02-28T00:19:07;23;23;
78063;PMS5003;67429;51.596;-3.264;2024-02-28T00:21:32;32;30;
78063;PMS5003;67429;51.596;-3.264;2024-02-28T00:23:57;20;19;
78063;PMS5003;67429;51.596;-3.264;2024-02-28T00:26:22;17;16;
78063;PMS5003;67429;51.596;-3.264;2024-02-28T00:28:47;15;15;
78063;PMS5003;67429;51.596;-3.264;2024-02-28T00:31:13;16;13;
78063;PMS5003;67429;51.596;-3.264;2024-02-28T00:33:39;15;15;
78063;PMS5003;67429;51.596;-3.264;2024-02-28T00:36:04;15;14;
78063;PMS5003;67429;51.596;-3.264;2024-02-28T00:38:29;13;11;
78063;PMS5003;67429;51.596;-3.264;2024-02-28T00:40:55;16;15;
78063;PMS5003;67429;51.596;-3.264;2024-02-28T00:43:21;14;13;
78063;PMS5003;67429;51.596;-3.264;2024-02-28T00:45:46;18;16;
78063;PMS5003;67429;51.596;-3.264;2024-02-28T00:48:11;44;42;
78063;PMS5003;67429;51.596;-3.264;2024-02-28T00:50:36;48;44;
78063;PMS5003;67429;51.596;-3.264;2024-02-28T00:53:02;25;22;
78063;PMS5003;67429;51.596;-3.264;2024-02-28T00:55:27;22;15;
78063;PMS5003;67429;51.596;-3.264;2024-02-28T00:57:52;17;15;
78063;PMS5003;67429;51.596;-3.264;2024-02-28T01:00:18;15;12;
78063;PMS5003;67429;51.596;-3.264;2024-02-28T01:02:44;15;15;
78063;PMS5003;67429;51.596;-3.264;2024-02-28T01:05:09;12;10;
78063;PMS5003;67429;51.596;-3.264;2024-02-28T01:07:34;13;13;
78063;PMS5003;67429;51.596;-3.264;2024-02-28T01:10:00;16;14;
78063;PMS5003;67429;51.596;-3.264;2024-02-28T01:12:25;18;16;
78063;PMS5003;67429;51.596;-3.264;2024-02-28T01:14:51;18;18;
78063;PMS5003;67429;51.596;-3.264;2024-02-28T01:17:16;16;15;
78063;PMS5003;67429;51.596;-3.264;2024-02-28T01:19:42;15;14;
78063;PMS5003;67429;51.596;-3.264;2024-02-28T01:22:07;13;13;
78063;PMS5003;67429;51.596;-3.264;2024-02-28T01:24:33;20;15;
78063;PMS5003;67429;51.596;-3.264;2024-02-28T01:26:58;14;10;
78063;PMS5003;67429;51.596;-3.264;2024-02-28T01:29:24;15;13;
78063;PMS5003;67429;51.596;-3.264;2024-02-28T01:31:50;15;13;
78063;PMS5003;67429;51.596;-3.264;2024-02-28T01:34:15;14;13;
78063;PMS5003;67429;51.596;-3.264;2024-02-28T01:36:41;10;10;
78063;PMS5003;67429;51.596;-3.264;2024-02-28T01:39:07;8;8;
78063;PMS5003;67429;51.596;-3.264;2024-02-28T01:41:32;12;12;
78063;PMS5003;67429;51.596;-3.264;2024-02-28T01:43:58;12;10;
78063;PMS5003;67429;51.596;-3.264;2024-02-28T01:46:25;9;8;
78063;PMS5003;67429;51.596;-3.264;2024-02-28T01:48:49;8;8;
78063;PMS5003;67429;51.596;-3.264;2024-02-28T01:51:15;6;6;
78063;PMS5003;67429;51.596;-3.264;2024-02-28T01:53:41;6;6;
78063;PMS5003;67429;51.596;-3.264;2024-02-28T01:56:06;9;8;
78063;PMS5003;67429;51.596;-3.264;2024-02-28T01:58:32;12;10;
78063;PMS5003;67429;51.596;-3.264;2024-02-28T02:00:58;12;11;
78063;PMS5003;67429;51.596;-3.264;2024-02-28T02:03:23;13;13;
78063;PMS5003;67429;51.596;-3.264;2024-02-28T02:05:49;10;10;
78063;PMS5003;67429;51.596;-3.264;2024-02-28T02:08:15;10;9;
78063;PMS5003;67429;51.596;-3.264;2024-02-28T02:10:41;13;13;
78063;PMS5003;67429;51.596;-3.264;2024-02-28T02:13:06;14;14;
78063;PMS5003;67429;51.596;-3.264;2024-02-28T02:15:31;13;12;
78063;PMS5003;67429;51.596;-3.264;2024-02-28T02:17:57;10;10;
78063;PMS5003;67429;51.596;-3.264;2024-02-28T02:20:22;14;13;
78063;PMS5003;67429;51.596;-3.264;2024-02-28T02:22:48;15;14;
78063;PMS5003;67429;51.596;-3.264;2024-02-28T02:25:13;12;11;
78063;PMS5003;67429;51.596;-3.264;2024-02-28T02:27:39;9;9;
78063;PMS5003;67429;51.596;-3.264;2024-02-28T02:30:06;8;8;
78063;PMS5003;67429;51.596;-3.264;2024-02-28T02:32:30;8;7;
78063;PMS5003;67429;51.596;-3.264;2024-02-28T02:34:56;12;12;
78063;PMS5003;67429;51.596;-3.264;2024-02-28T02:37:22;8;8;
78063;PMS5003;67429;51.596;-3.264;2024-02-28T02:39:47;9;9;
78063;PMS5003;67429;51.596;-3.264;2024-02-28T02:42:13;9;9;
78063;PMS5003;67429;51.596;-3.264;2024-02-28T02:44:39;11;9;
78063;PMS5003;67429;51.596;-3.264;2024-02-28T02:47:05;11;11;
78063;PMS5003;67429;51.596;-3.264;2024-02-28T02:49:30;17;14;
78063;PMS5003;67429;51.596;-3.264;2024-02-28T02:51:56;13;12;
78063;PMS5003;67429;51.596;-3.264;2024-02-28T02:54:22;9;9;
78063;PMS5003;67429;51.596;-3.264;2024-02-28T02:56:47;12;8;
78063;PMS5003;67429;51.596;-3.264;2024-02-28T02:59:13;13;13;
78063;PMS5003;67429;51.596;-3.264;2024-02-28T03:01:39;12;12;
78063;PMS5003;67429;51.596;-3.264;2024-02-28T03:04:04;13;12;
78063;PMS5003;67429;51.596;-3.264;2024-02-28T03:06:30;11;9;
78063;PMS5003;67429;51.596;-3.264;2024-02-28T03:08:56;8;7;
78063;PMS5003;67429;51.596;-3.264;2024-02-28T03:11:21;6;6;
78063;PMS5003;67429;51.596;-3.264;2024-02-28T03:13:47;7;6;
78063;PMS5003;67429;51.596;-3.264;2024-02-28T03:16:13;8;6;
78063;PMS5003;67429;51.596;-3.264;2024-02-28T03:18:38;8;6;
78063;PMS5003;67429;51.596;-3.264;2024-02-28T03:21:04;8;6;
78063;PMS5003;67429;51.596;-3.264;2024-02-28T03:23:30;6;6;
78063;PMS5003;67429;51.596;-3.264;2024-02-28T03:25:55;4;4;
78063;PMS5003;67429;51.596;-3.264;2024-02-28T03:28:21;8;7;
78063;PMS5003;67429;51.596;-3.264;2024-02-28T03:30:47;4;4;
78063;PMS5003;67429;51.596;-3.264;2024-02-28T03:33:12;7;7;
78063;PMS5003;67429;51.596;-3.264;2024-02-28T03:35:38;7;7;
78063;PMS5003;67429;51.596;-3.264;2024-02-28T03:38:04;7;7;
78063;PMS5003;67429;51.596;-3.264;2024-02-28T03:40:30;6;4;
78063;PMS5003;67429;51.596;-3.264;2024-02-28T03:42:55;4;4;
78063;PMS5003;67429;51.596;-3.264;2024-02-28T03:45:22;7;7;
78063;PMS5003;67429;51.596;-3.264;2024-02-28T03:47:47;9;8;
78063;PMS5003;67429;51.596;-3.264;2024-02-28T03:50:12;11;8;
78063;PMS5003;67429;51.596;-3.264;2024-02-28T03:52:38;13;9;
78063;PMS5003;67429;51.596;-3.264;2024-02-28T03:55:04;8;7;
78063;PMS5003;67429;51.596;-3.264;2024-02-28T03:57:29;4;4;
78063;PMS5003;67429;51.596;-3.264;2024-02-28T03:59:55;8;6;
78063;PMS5003;67429;51.596;-3.264;2024-02-28T04:02:21;16;14;
78063;PMS5003;67429;51.596;-3.264;2024-02-28T04:04:46;12;12;
78063;PMS5003;67429;51.596;-3.264;2024-02-28T04:07:12;11;11;
78063;PMS5003;67429;51.596;-3.264;2024-02-28T04:09:37;14;11;
78063;PMS5003;67429;51.596;-3.264;2024-02-28T04:12:03;11;9;
78063;PMS5003;67429;51.596;-3.264;2024-02-28T04:14:29;8;7;
78063;PMS5003;67429;51.596;-3.264;2024-02-28T04:16:54;6;6;
78063;PMS5003;67429;51.596;-3.264;2024-02-28T04:19:20;7;7;
78063;PMS5003;67429;51.596;-3.264;2024-02-28T04:21:46;12;11;
78063;PMS5003;67429;51.596;-3.264;2024-02-28T04:24:11;12;12;
78063;PMS5003;67429;51.596;-3.264;2024-02-28T04:26:37;9;9;
78063;PMS5003;67429;51.596;-3.264;2024-02-28T04:29:03;12;11;
78063;PMS5003;67429;51.596;-3.264;2024-02-28T04:31:28;9;9;
78063;PMS5003;67429;51.596;-3.264;2024-02-28T04:33:54;8;8;
78063;PMS5003;67429;51.596;-3.264;2024-02-28T04:36:19;13;10;
78063;PMS5003;67429;51.596;-3.264;2024-02-28T04:38:45;8;8;
78063;PMS5003;67429;51.596;-3.264;2024-02-28T04:41:10;12;12;
78063;PMS5003;67429;51.596;-3.264;2024-02-28T04:43:36;12;11;
78063;PMS5003;67429;51.596;-3.264;2024-02-28T04:46:02;10;9;
78063;PMS5003;67429;51.596;-3.264;2024-02-28T04:48:27;12;12;
78063;PMS5003;67429;51.596;-3.264;2024-02-28T04:50:53;13;12;
78063;PMS5003;67429;51.596;-3.264;2024-02-28T04:53:19;12;12;
78063;PMS5003;67429;51.596;-3.264;2024-02-28T04:55:44;11;9;
78063;PMS5003;67429;51.596;-3.264;2024-02-28T04:58:10;9;8;
78063;PMS5003;67429;51.596;-3.264;2024-02-28T05:00:35;8;8;
78063;PMS5003;67429;51.596;-3.264;2024-02-28T05:03:00;8;7;
78063;PMS5003;67429;51.596;-3.264;2024-02-28T05:05:26;7;6;
78063;PMS5003;67429;51.596;-3.264;2024-02-28T05:07:51;10;9;
78063;PMS5003;67429;51.596;-3.264;2024-02-28T05:10:17;13;12;
78063;PMS5003;67429;51.596;-3.264;2024-02-28T05:12:43;10;9;
78063;PMS5003;67429;51.596;-3.264;2024-02-28T05:15:09;15;10;
78063;PMS5003;67429;51.596;-3.264;2024-02-28T05:17:34;10;9;
78063;PMS5003;67429;51.596;-3.264;2024-02-28T05:19:59;15;14;
78063;PMS5003;67429;51.596;-3.264;2024-02-28T05:22:25;14;12;
78063;PMS5003;67429;51.596;-3.264;2024-02-28T05:24:50;13;12;
78063;PMS5003;67429;51.596;-3.264;2024-02-28T05:27:16;13;12;
78063;PMS5003;67429;51.596;-3.264;2024-02-28T05:29:41;13;12;
78063;PMS5003;67429;51.596;-3.264;2024-02-28T05:32:07;11;11;
78063;PMS5003;67429;51.596;-3.264;2024-02-28T05:34:32;20;16;
78063;PMS5003;67429;51.596;-3.264;2024-02-28T05:36:57;14;11;
78063;PMS5003;67429;51.596;-3.264;2024-02-28T05:39:23;14;11;
78063;PMS5003;67429;51.596;-3.264;2024-02-28T05:41:48;8;7;
78063;PMS5003;67429;51.596;-3.264;2024-02-28T05:44:14;10;9;
78063;PMS5003;67429;51.596;-3.264;2024-02-28T05:46:39;9;9;
78063;PMS5003;67429;51.596;-3.264;2024-02-28T05:49:05;8;8;
78063;PMS5003;67429;51.596;-3.264;2024-02-28T05:51:31;11;9;
78063;PMS5003;67429;51.596;-3.264;2024-02-28T05:53:56;8;7;
78063;PMS5003;67429;51.596;-3.264;2024-02-28T05:56:22;10;8;
78063;PMS5003;67429;51.596;-3.264;2024-02-28T05:58:48;13;10;
78063;PMS5003;67429;51.596;-3.264;2024-02-28T06:01:15;9;8;
78063;PMS5003;67429;51.596;-3.264;2024-02-28T06:03:40;10;8;
78063;PMS5003;67429;51.596;-3.264;2024-02-28T06:06:05;9;8;
78063;PMS5003;67429;51.596;-3.264;2024-02-28T06:08:31;8;8;
78063;PMS5003;67429;51.596;-3.264;2024-02-28T06:10:56;10;10;
78063;PMS5003;67429;51.596;-3.264;2024-02-28T06:13:22;9;9;
78063;PMS5003;67429;51.596;-3.264;2024-02-28T06:15:48;11;10;
78063;PMS5003;67429;51.596;-3.264;2024-02-28T06:18:13;13;10;
78063;PMS5003;67429;51.596;-3.264;2024-02-28T06:20:39;13;13;
78063;PMS5003;67429;51.596;-3.264;2024-02-28T06:23:04;15;14;
78063;PMS5003;67429;51.596;-3.264;2024-02-28T06:25:30;10;9;
78063;PMS5003;67429;51.596;-3.264;2024-02-28T06:27:55;9;9;
78063;PMS5003;67429;51.596;-3.264;2024-02-28T06:30:20;9;9;
78063;PMS5003;67429;51.596;-3.264;2024-02-28T06:32:46;11;11;
78063;PMS5003;67429;51.596;-3.264;2024-02-28T06:35:12;11;10;
78063;PMS5003;67429;51.596;-3.264;2024-02-28T06:37:37;8;8;
78063;PMS5003;67429;51.596;-3.264;2024-02-28T06:40:03;34;33;
78063;PMS5003;67429;51.596;-3.264;2024-02-28T06:42:29;36;34;
78063;PMS5003;67429;51.596;-3.264;2024-02-28T06:44:54;40;39;
78063;PMS5003;67429;51.596;-3.264;2024-02-28T06:47:19;39;36;
78063;PMS5003;67429;51.596;-3.264;2024-02-28T06:49:45;44;39;
78063;PMS5003;67429;51.596;-3.264;2024-02-28T06:52:11;46;42;
78063;PMS5003;67429;51.596;-3.264;2024-02-28T06:54:36;45;39;
78063;PMS5003;67429;51.596;-3.264;2024-02-28T06:57:01;42;42;
78063;PMS5003;67429;51.596;-3.264;2024-02-28T06:59:26;48;46;
78063;PMS5003;67429;51.596;-3.264;2024-02-28T07:01:53;45;41;
78063;PMS5003;67429;51.596;-3.264;2024-02-28T07:04:18;52;48;
78063;PMS5003;67429;51.596;-3.264;2024-02-28T07:06:44;41;40;
78063;PMS5003;67429;51.596;-3.264;2024-02-28T07:09:10;54;50;
78063;PMS5003;67429;51.596;-3.264;2024-02-28T07:11:35;64;59;
78063;PMS5003;67429;51.596;-3.264;2024-02-28T07:13:59;72;66;
78063;PMS5003;67429;51.596;-3.264;2024-02-28T07:16:25;53;52;
78063;PMS5003;67429;51.596;-3.264;2024-02-28T07:18:51;49;46;
78063;PMS5003;67429;51.596;-3.264;2024-02-28T07:21:16;44;44;
78063;PMS5003;67429;51.596;-3.264;2024-02-28T07:23:41;46;45;
78063;PMS5003;67429;51.596;-3.264;2024-02-28T07:26:07;46;46;
78063;PMS5003;67429;51.596;-3.264;2024-02-28T07:28:33;54;54;
78063;PMS5003;67429;51.596;-3.264;2024-02-28T07:30:57;54;47;
78063;PMS5003;67429;51.596;-3.264;2024-02-28T07:33:23;58;55;
78063;PMS5003;67429;51.596;-3.264;2024-02-28T07:35:48;56;53;
78063;PMS5003;67429;51.596;-3.264;2024-02-28T07:38:14;72;68;
78063;PMS5003;67429;51.596;-3.264;2024-02-28T07:40:39;90;83;
78063;PMS5003;67429;51.596;-3.264;2024-02-28T07:43:04;57;54;
78063;PMS5003;67429;51.596;-3.264;2024-02-28T07:45:30;65;62;
78063;PMS5003;67429;51.596;-3.264;2024-02-28T07:47:55;63;58;
78063;PMS5003;67429;51.596;-3.264;2024-02-28T07:50:20;51;45;
78063;PMS5003;67429;51.596;-3.264;2024-02-28T07:52:46;38;33;
78063;PMS5003;67429;51.596;-3.264;2024-02-28T07:55:11;41;37;
78063;PMS5003;67429;51.596;-3.264;2024-02-28T07:57:37;36;35;
78063;PMS5003;67429;51.596;-3.264;2024-02-28T08:00:03;33;32;
78063;PMS5003;67429;51.596;-3.264;2024-02-28T08:02:28;31;27;
78063;PMS5003;67429;51.596;-3.264;2024-02-28T08:04:53;17;17;
78063;PMS5003;67429;51.596;-3.264;2024-02-28T08:07:19;31;30;
78063;PMS5003;67429;51.596;-3.264;2024-02-28T08:09:44;24;23;
78063;PMS5003;67429;51.596;-3.264;2024-02-28T08:12:09;22;21;
78063;PMS5003;67429;51.596;-3.264;2024-02-28T08:14:34;29;24;
78063;PMS5003;67429;51.596;-3.264;2024-02-28T08:17:00;29;25;
78063;PMS5003;67429;51.596;-3.264;2024-02-28T08:19:25;21;21;
78063;PMS5003;67429;51.596;-3.264;2024-02-28T08:21:50;19;18;
78063;PMS5003;67429;51.596;-3.264;2024-02-28T08:24:16;9;8;
78063;PMS5003;67429;51.596;-3.264;2024-02-28T08:26:41;17;17;
78063;PMS5003;67429;51.596;-3.264;2024-02-28T08:29:07;19;19;
78063;PMS5003;67429;51.596;-3.264;2024-02-28T08:31:32;14;12;
78063;PMS5003;67429;51.596;-3.264;2024-02-28T08:33:57;21;18;
78063;PMS5003;67429;51.596;-3.264;2024-02-28T08:36:23;17;15;
78063;PMS5003;67429;51.596;-3.264;2024-02-28T08:38:49;17;16;
78063;PMS5003;67429;51.596;-3.264;2024-02-28T08:41:14;11;11;
78063;PMS5003;67429;51.596;-3.264;2024-02-28T08:43:39;11;11;
78063;PMS5003;67429;51.596;-3.264;2024-02-28T08:46:05;10;9;
78063;PMS5003;67429;51.596;-3.264;2024-02-28T08:48:30;9;9;
78063;PMS5003;67429;51.596;-3.264;2024-02-28T08:50:55;10;10;
78063;PMS5003;67429;51.596;-3.264;2024-02-28T08:53:21;13;11;
78063;PMS5003;67429;51.596;-3.264;2024-02-28T08:55:46;10;10;
78063;PMS5003;67429;51.596;-3.264;2024-02-28T08:58:12;8;8;
78063;PMS5003;67429;51.596;-3.264;2024-02-28T09:00:37;10;9;
78063;PMS5003;67429;51.596;-3.264;2024-02-28T09:03:03;13;12;
78063;PMS5003;67429;51.596;-3.264;2024-02-28T09:05:28;10;10;
78063;PMS5003;67429;51.596;-3.264;2024-02-28T09:07:54;6;6;
78063;PMS5003;67429;51.596;-3.264;2024-02-28T09:10:19;13;9;
78063;PMS5003;67429;51.596;-3.264;2024-02-28T09:12:45;11;10;
78063;PMS5003;67429;51.596;-3.264;2024-02-28T09:15:10;11;10;
78063;PMS5003;67429;51.596;-3.264;2024-02-28T09:17:36;6;6;
78063;PMS5003;67429;51.596;-3.264;2024-02-28T09:20:02;5;5;
78063;PMS5003;67429;51.596;-3.264;2024-02-28T09:22:27;9;8;
78063;PMS5003;67429;51.596;-3.264;2024-02-28T09:24:52;6;6;
78063;PMS5003;67429;51.596;-3.264;2024-02-28T09:27:18;8;7;
78063;PMS5003;67429;51.596;-3.264;2024-02-28T09:29:44;10;9;
78063;PMS5003;67429;51.596;-3.264;2024-02-28T09:32:10;5;5;
78063;PMS5003;67429;51.596;-3.264;2024-02-28T09:34:35;10;10;
78063;PMS5003;67429;51.596;-3.264;2024-02-28T09:37:01;9;9;
78063;PMS5003;67429;51.596;-3.264;2024-02-28T09:39:26;8;6;
78063;PMS5003;67429;51.596;-3.264;2024-02-28T09:41:52;10;9;
78063;PMS5003;67429;51.596;-3.264;2024-02-28T09:44:18;6;6;
78063;PMS5003;67429;51.596;-3.264;2024-02-28T09:46:43;10;6;
78063;PMS5003;67429;51.596;-3.264;2024-02-28T09:49:09;9;8;
78063;PMS5003;67429;51.596;-3.264;2024-02-28T09:51:34;16;16;
78063;PMS5003;67429;51.596;-3.264;2024-02-28T09:54:00;5;5;
78063;PMS5003;67429;51.596;-3.264;2024-02-28T09:56:25;10;10;
78063;PMS5003;67429;51.596;-3.264;2024-02-28T09:58:51;22;20;
78063;PMS5003;67429;51.596;-3.264;2024-02-28T10:01:17;9;9;
78063;PMS5003;67429;51.596;-3.264;2024-02-28T10:03:42;9;8;
78063;PMS5003;67429;51.596;-3.264;2024-02-28T10:06:08;19;17;
78063;PMS5003;67429;51.596;-3.264;2024-02-28T10:08:33;24;23;
78063;PMS5003;67429;51.596;-3.264;2024-02-28T10:10:58;20;20;
78063;PMS5003;67429;51.596;-3.264;2024-02-28T10:13:23;11;9;
78063;PMS5003;67429;51.596;-3.264;2024-02-28T10:15:49;9;8;
78063;PMS5003;67429;51.596;-3.264;2024-02-28T10:18:14;8;6;
78063;PMS5003;67429;51.596;-3.264;2024-02-28T10:20:40;11;11;
78063;PMS5003;67429;51.596;-3.264;2024-02-28T10:23:06;20;20;
78063;PMS5003;67429;51.596;-3.264;2024-02-28T10:25:30;19;18;
78063;PMS5003;67429;51.596;-3.264;2024-02-28T10:27:59;19;19;
78063;PMS5003;67429;51.596;-3.264;2024-02-28T10:30:21;34;31;
78063;PMS5003;67429;51.596;-3.264;2024-02-28T10:32:48;32;30;
78063;PMS5003;67429;51.596;-3.264;2024-02-28T10:35:13;31;30;
78063;PMS5003;67429;51.596;-3.264;2024-02-28T10:37:38;30;24;
78063;PMS5003;67429;51.596;-3.264;2024-02-28T10:40:04;15;15;
78063;PMS5003;67429;51.596;-3.264;2024-02-28T10:42:30;16;16;
78063;PMS5003;67429;51.596;-3.264;2024-02-28T10:44:54;16;15;
78063;PMS5003;67429;51.596;-3.264;2024-02-28T10:47:19;11;11;
78063;PMS5003;67429;51.596;-3.264;2024-02-28T10:49:45;14;14;
78063;PMS5003;67429;51.596;-3.264;2024-02-28T10:52:11;9;9;
78063;PMS5003;67429;51.596;-3.264;2024-02-28T10:54:35;8;8;
78063;PMS5003;67429;51.596;-3.264;2024-02-28T10:57:01;11;10;
78063;PMS5003;67429;51.596;-3.264;2024-02-28T10:59:26;8;7;
78063;PMS5003;67429;51.596;-3.264;2024-02-28T11:01:51;9;9;
78063;PMS5003;67429;51.596;-3.264;2024-02-28T11:04:17;10;10;
78063;PMS5003;67429;51.596;-3.264;2024-02-28T11:06:48;7;7;
78063;PMS5003;67429;51.596;-3.264;2024-02-28T11:09:09;12;11;
78063;PMS5003;67429;51.596;-3.264;2024-02-28T11:11:33;17;15;
78063;PMS5003;67429;51.596;-3.264;2024-02-28T11:13:59;14;11;
78063;PMS5003;67429;51.596;-3.264;2024-02-28T11:16:26;14;14;
78063;PMS5003;67429;51.596;-3.264;2024-02-28T11:18:50;15;14;
78063;PMS5003;67429;51.596;-3.264;2024-02-28T11:21:15;13;12;
78063;PMS5003;67429;51.596;-3.264;2024-02-28T11:23:40;16;15;
78063;PMS5003;67429;51.596;-3.264;2024-02-28T11:26:06;15;13;
78063;PMS5003;67429;51.596;-3.264;2024-02-28T11:28:31;11;10;
78063;PMS5003;67429;51.596;-3.264;2024-02-28T11:30:56;12;11;
78063;PMS5003;67429;51.596;-3.264;2024-02-28T11:33:23;5;5;
78063;PMS5003;67429;51.596;-3.264;2024-02-28T11:38:13;6;5;
78063;PMS5003;67429;51.596;-3.264;2024-02-28T11:40:43;9;8;
78063;PMS5003;67429;51.596;-3.264;2024-02-28T11:43:05;9;9;
78063;PMS5003;67429;51.596;-3.264;2024-02-28T11:45:30;3;3;
78063;PMS5003;67429;51.596;-3.264;2024-02-28T11:47:56;4;4;
78063;PMS5003;67429;51.596;-3.264;2024-02-28T11:50:22;4;4;
78063;PMS5003;67429;51.596;-3.264;2024-02-28T11:52:47;3;3;
78063;PMS5003;67429;51.596;-3.264;2024-02-28T11:55:13;2;2;
78063;PMS5003;67429;51.596;-3.264;2024-02-28T11:57:38;1;1;
78063;PMS5003;67429;51.596;-3.264;2024-02-28T12:00:09;2;2;
78063;PMS5003;67429;51.596;-3.264;2024-02-28T12:02:30;1;1;
78063;PMS5003;67429;51.596;-3.264;2024-02-28T12:04:59;2;2;
78063;PMS5003;67429;51.596;-3.264;2024-02-28T12:07:21;3;2;
78063;PMS5003;67429;51.596;-3.264;2024-02-28T12:09:47;1;1;
78063;PMS5003;67429;51.596;-3.264;2024-02-28T12:12:13;2;2;
78063;PMS5003;67429;51.596;-3.264;2024-02-28T12:14:38;2;2;
78063;PMS5003;67429;51.596;-3.264;2024-02-28T12:17:04;2;2;
78063;PMS5003;67429;51.596;-3.264;2024-02-28T12:19:29;1;1;
78063;PMS5003;67429;51.596;-3.264;2024-02-28T12:21:55;2;2;
78063;PMS5003;67429;51.596;-3.264;2024-02-28T12:24:20;1;1;
78063;PMS5003;67429;51.596;-3.264;2024-02-28T12:26:46;2;2;
78063;PMS5003;67429;51.596;-3.264;2024-02-28T12:29:12;0;0;
78063;PMS5003;67429;51.596;-3.264;2024-02-28T12:31:38;1;1;
78063;PMS5003;67429;51.596;-3.264;2024-02-28T12:34:03;1;1;
78063;PMS5003;67429;51.596;-3.264;2024-02-28T12:36:34;0;0;
78063;PMS5003;67429;51.596;-3.264;2024-02-28T12:38:54;1;1;
78063;PMS5003;67429;51.596;-3.264;2024-02-28T12:41:20;1;1;
78063;PMS5003;67429;51.596;-3.264;2024-02-28T12:43:45;0;0;
78063;PMS5003;67429;51.596;-3.264;2024-02-28T12:46:11;0;0;
78063;PMS5003;67429;51.596;-3.264;2024-02-28T12:48:38;3;3;
78063;PMS5003;67429;51.596;-3.264;2024-02-28T12:51:03;2;1;
78063;PMS5003;67429;51.596;-3.264;2024-02-28T12:53:28;0;0;
78063;PMS5003;67429;51.596;-3.264;2024-02-28T12:55:54;0;0;
78063;PMS5003;67429;51.596;-3.264;2024-02-28T12:58:19;0;0;
78063;PMS5003;67429;51.596;-3.264;2024-02-28T13:00:45;0;0;
78063;PMS5003;67429;51.596;-3.264;2024-02-28T13:03:10;0;0;
78063;PMS5003;67429;51.596;-3.264;2024-02-28T13:05:36;2;1;
78063;PMS5003;67429;51.596;-3.264;2024-02-28T13:08:02;0;0;
78063;PMS5003;67429;51.596;-3.264;2024-02-28T13:10:27;1;1;
78063;PMS5003;67429;51.596;-3.264;2024-02-28T13:12:52;0;0;
78063;PMS5003;67429;51.596;-3.264;2024-02-28T13:15:18;1;1;
78063;PMS5003;67429;51.596;-3.264;2024-02-28T13:17:44;1;1;
78063;PMS5003;67429;51.596;-3.264;2024-02-28T13:20:09;1;1;
78063;PMS5003;67429;51.596;-3.264;2024-02-28T13:22:35;4;4;
78063;PMS5003;67429;51.596;-3.264;2024-02-28T13:25:00;4;3;
78063;PMS5003;67429;51.596;-3.264;2024-02-28T13:27:26;0;0;
78063;PMS5003;67429;51.596;-3.264;2024-02-28T13:29:52;1;1;
78063;PMS5003;67429;51.596;-3.264;2024-02-28T13:32:17;2;2;
78063;PMS5003;67429;51.596;-3.264;2024-02-28T13:34:43;2;2;
78063;PMS5003;67429;51.596;-3.264;2024-02-28T13:37:09;0;0;
78063;PMS5003;67429;51.596;-3.264;2024-02-28T13:39:35;1;1;
78063;PMS5003;67429;51.596;-3.264;2024-02-28T13:42:00;1;1;
78063;PMS5003;67429;51.596;-3.264;2024-02-28T13:44:25;0;0;
78063;PMS5003;67429;51.596;-3.264;2024-02-28T13:46:51;0;0;
78063;PMS5003;67429;51.596;-3.264;2024-02-28T13:49:17;1;1;
78063;PMS5003;67429;51.596;-3.264;2024-02-28T13:51:42;2;1;
78063;PMS5003;67429;51.596;-3.264;2024-02-28T13:54:08;1;1;
78063;PMS5003;67429;51.596;-3.264;2024-02-28T13:56:33;0;0;
78063;PMS5003;67429;51.596;-3.264;2024-02-28T13:58:59;1;1;
78063;PMS5003;67429;51.596;-3.264;2024-02-28T14:01:24;1;1;
78063;PMS5003;67429;51.596;-3.264;2024-02-28T14:03:50;0;0;
78063;PMS5003;67429;51.596;-3.264;2024-02-28T14:06:16;1;1;
78063;PMS5003;67429;51.596;-3.264;2024-02-28T14:08:41;0;0;
78063;PMS5003;67429;51.596;-3.264;2024-02-28T14:11:07;2;2;
78063;PMS5003;67429;51.596;-3.264;2024-02-28T14:13:32;1;1;
78063;PMS5003;67429;51.596;-3.264;2024-02-28T14:15:58;1;1;
78063;PMS5003;67429;51.596;-3.264;2024-02-28T14:18:23;1;1;
78063;PMS5003;67429;51.596;-3.264;2024-02-28T14:20:49;1;1;
78063;PMS5003;67429;51.596;-3.264;2024-02-28T14:23:14;2;1;
78063;PMS5003;67429;51.596;-3.264;2024-02-28T14:25:40;1;1;
78063;PMS5003;67429;51.596;-3.264;2024-02-28T14:28:05;0;0;
78063;PMS5003;67429;51.596;-3.264;2024-02-28T14:30:30;1;1;
78063;PMS5003;67429;51.596;-3.264;2024-02-28T14:32:56;2;2;
78063;PMS5003;67429;51.596;-3.264;2024-02-28T14:35:22;4;3;
78063;PMS5003;67429;51.596;-3.264;2024-02-28T14:37:47;4;3;
78063;PMS5003;67429;51.596;-3.264;2024-02-28T14:40:13;4;4;
78063;PMS5003;67429;51.596;-3.264;2024-02-28T14:42:39;4;3;
78063;PMS5003;67429;51.596;-3.264;2024-02-28T14:45:05;5;5;
78063;PMS5003;67429;51.596;-3.264;2024-02-28T14:47:30;7;6;
78063;PMS5003;67429;51.596;-3.264;2024-02-28T14:49:55;5;5;
78063;PMS5003;67429;51.596;-3.264;2024-02-28T14:52:21;5;4;
78063;PMS5003;67429;51.596;-3.264;2024-02-28T14:54:46;3;3;
78063;PMS5003;67429;51.596;-3.264;2024-02-28T14:57:12;1;1;
78063;PMS5003;67429;51.596;-3.264;2024-02-28T14:59:38;2;2;
78063;PMS5003;67429;51.596;-3.264;2024-02-28T15:02:04;5;5;
78063;PMS5003;67429;51.596;-3.264;2024-02-28T15:04:29;5;3;
78063;PMS5003;67429;51.596;-3.264;2024-02-28T15:06:55;2;2;
78063;PMS5003;67429;51.596;-3.264;2024-02-28T15:09:20;2;2;
78063;PMS5003;67429;51.596;-3.264;2024-02-28T15:11:46;3;3;
78063;PMS5003;67429;51.596;-3.264;2024-02-28T15:14:12;3;3;
78063;PMS5003;67429;51.596;-3.264;2024-02-28T15:16:37;4;4;
78063;PMS5003;67429;51.596;-3.264;2024-02-28T15:19:03;4;4;
78063;PMS5003;67429;51.596;-3.264;2024-02-28T15:21:28;1;1;
78063;PMS5003;67429;51.596;-3.264;2024-02-28T15:23:53;4;4;
78063;PMS5003;67429;51.596;-3.264;2024-02-28T15:26:19;2;2;
78063;PMS5003;67429;51.596;-3.264;2024-02-28T15:28:45;2;2;
78063;PMS5003;67429;51.596;-3.264;2024-02-28T15:31:10;2;2;
78063;PMS5003;67429;51.596;-3.264;2024-02-28T15:33:36;1;1;
78063;PMS5003;67429;51.596;-3.264;2024-02-28T15:36:01;3;3;
78063;PMS5003;67429;51.596;-3.264;2024-02-28T15:38:27;2;1;
78063;PMS5003;67429;51.596;-3.264;2024-02-28T15:40:53;2;2;
78063;PMS5003;67429;51.596;-3.264;2024-02-28T15:43:18;4;4;
78063;PMS5003;67429;51.596;-3.264;2024-02-28T15:45:44;3;3;
78063;PMS5003;67429;51.596;-3.264;2024-02-28T15:48:10;1;1;
78063;PMS5003;67429;51.596;-3.264;2024-02-28T15:50:35;2;2;
78063;PMS5003;67429;51.596;-3.264;2024-02-28T15:53:01;1;1;
78063;PMS5003;67429;51.596;-3.264;2024-02-28T15:55:26;3;2;
78063;PMS5003;67429;51.596;-3.264;2024-02-28T15:57:52;1;1;
78063;PMS5003;67429;51.596;-3.264;2024-02-28T16:00:18;1;1;
78063;PMS5003;67429;51.596;-3.264;2024-02-28T16:02:43;2;2;
78063;PMS5003;67429;51.596;-3.264;2024-02-28T16:05:09;0;0;
78063;PMS5003;67429;51.596;-3.264;2024-02-28T16:07:34;1;1;
78063;PMS5003;67429;51.596;-3.264;2024-02-28T16:10:00;1;1;